createdAt,value
2019-05-07T00:02:32.032Z,2.80
2019-05-07T00:05:14.145Z,2.97
2019-05-07T00:10:17.520Z,2.87
2019-05-07T00:12:46.663Z,2.80
2019-05-07T00:15:18.475Z,3.30
2019-05-07T00:17:43.383Z,3.70
2019-05-07T00:20:13.813Z,3.10
2019-05-07T00:22:41.927Z,3.20
2019-05-07T00:25:15.242Z,3.30
2019-05-07T00:27:42.781Z,2.60
2019-05-07T00:30:12.544Z,2.83
2019-05-07T00:32:39.069Z,2.93
2019-05-07T00:35:09.387Z,3.43
2019-05-07T00:37:36.780Z,2.97
2019-05-07T00:40:04.162Z,2.77
2019-05-07T00:42:34.582Z,2.87
2019-05-07T00:45:14.287Z,3.00
2019-05-07T00:47:32.824Z,2.90
2019-05-07T00:49:59.982Z,3.10
2019-05-07T00:52:33.628Z,3.10
2019-05-07T00:57:37.076Z,2.97
2019-05-07T01:00:30.033Z,2.67
2019-05-07T01:02:57.136Z,3.40
2019-05-07T01:05:24.307Z,2.97
2019-05-07T01:07:52.883Z,3.27
2019-05-07T01:10:22.268Z,3.03
2019-05-07T01:12:53.179Z,2.97
2019-05-07T01:15:31.039Z,2.80
2019-05-07T01:17:59.375Z,3.33
2019-05-07T01:20:33.057Z,3.10
2019-05-07T01:23:02.551Z,2.70
2019-05-07T01:25:32.891Z,3.07
2019-05-07T01:28:16.939Z,3.07
2019-05-07T01:30:45.672Z,3.13
2019-05-07T01:33:17.458Z,3.10
2019-05-07T01:38:35.369Z,2.73
2019-05-07T01:41:02.908Z,3.00
2019-05-07T01:43:32.105Z,2.57
2019-05-07T01:46:03.208Z,3.07
2019-05-07T01:48:32.349Z,2.97
2019-05-07T01:51:03.455Z,3.27
2019-05-07T01:53:32.460Z,3.23
2019-05-07T01:55:59.978Z,2.80
2019-05-07T01:58:33.245Z,3.03
2019-05-07T02:01:02.688Z,3.47
2019-05-07T02:03:38.139Z,3.33
2019-05-07T02:06:06.942Z,3.17
2019-05-07T02:08:53.018Z,3.00
2019-05-07T02:11:29.216Z,3.10
2019-05-07T02:13:56.301Z,3.23
2019-05-07T02:16:23.720Z,3.30
2019-05-07T02:18:52.779Z,3.07
2019-05-07T02:21:21.946Z,3.20
2019-05-07T02:24:03.322Z,3.10
2019-05-07T02:26:32.138Z,3.83
2019-05-07T02:28:59.604Z,4.00
2019-05-07T02:31:26.866Z,3.53
2019-05-07T02:33:54.382Z,3.40
2019-05-07T02:36:23.794Z,3.30
2019-05-07T02:38:53.125Z,3.20
2019-05-07T02:41:19.689Z,3.17
2019-05-07T02:43:46.905Z,3.10
2019-05-07T02:46:26.046Z,3.10
2019-05-07T02:48:44.621Z,3.23
2019-05-07T02:51:13.187Z,3.07
2019-05-07T02:53:43.113Z,3.30
2019-05-07T02:56:12.948Z,3.03
2019-05-07T02:58:43.486Z,3.40
2019-05-07T03:01:14.397Z,3.30
2019-05-07T03:03:44.699Z,3.47
2019-05-07T03:06:26.970Z,3.50
2019-05-07T03:08:56.879Z,3.67
2019-05-07T03:11:24.263Z,3.17
2019-05-07T03:13:53.667Z,3.60
2019-05-07T03:16:38.848Z,4.03
2019-05-07T03:19:09.166Z,3.50
2019-05-07T03:21:36.589Z,3.50
2019-05-07T03:24:05.447Z,3.50
2019-05-07T03:26:36.988Z,4.10
2019-05-07T03:29:04.127Z,3.30
2019-05-07T03:31:36.442Z,3.63
2019-05-07T03:34:16.159Z,3.70
2019-05-07T03:36:46.562Z,3.60
2019-05-07T03:39:14.502Z,3.77
2019-05-07T03:44:44.645Z,3.50
2019-05-07T03:47:13.985Z,3.50
2019-05-07T03:49:43.008Z,3.67
2019-05-07T03:52:13.547Z,3.50
2019-05-07T03:54:38.612Z,3.77
2019-05-07T03:57:11.098Z,3.33
2019-05-07T03:59:37.442Z,4.30
2019-05-07T04:02:04.661Z,3.83
2019-05-07T04:04:33.230Z,3.60
2019-05-07T04:07:03.329Z,4.00
2019-05-07T04:09:33.333Z,3.60
2019-05-07T04:12:03.871Z,3.57
2019-05-07T04:14:34.098Z,4.07
2019-05-07T04:17:14.489Z,3.77
2019-05-07T04:19:33.110Z,3.93
2019-05-07T04:22:00.245Z,3.90
2019-05-07T04:24:27.375Z,3.67
2019-05-07T04:26:54.512Z,3.83
2019-05-07T04:29:23.073Z,4.10
2019-05-07T04:31:53.055Z,4.23
2019-05-07T04:34:19.181Z,4.47
2019-05-07T04:36:46.321Z,4.10
2019-05-07T04:39:14.207Z,4.03
2019-05-07T04:41:43.488Z,4.20
2019-05-07T04:44:10.090Z,4.37
2019-05-07T04:46:37.195Z,4.53
2019-05-07T04:49:07.260Z,3.92
2019-05-07T04:51:33.727Z,4.20
2019-05-07T04:54:03.797Z,4.30
2019-05-07T04:56:37.012Z,4.60
2019-05-07T04:59:04.222Z,4.27
2019-05-07T05:01:32.912Z,4.23
2019-05-07T05:04:17.524Z,4.63
2019-05-07T05:06:29.337Z,4.83
2019-05-07T05:09:03.028Z,5.03
2019-05-07T05:11:39.110Z,5.27
2019-05-07T05:14:08.566Z,5.20
2019-05-07T05:16:38.001Z,4.67
2019-05-07T05:19:03.819Z,4.53
2019-05-07T05:21:32.401Z,4.20
2019-05-07T05:24:04.302Z,4.90
2019-05-07T05:26:32.459Z,5.80
2019-05-07T05:29:02.961Z,4.63
2019-05-07T05:31:30.147Z,4.67
2019-05-07T05:33:57.342Z,4.77
2019-05-07T05:36:24.433Z,4.60
2019-05-07T05:38:53.265Z,4.90
2019-05-07T05:41:22.493Z,4.37
2019-05-07T05:43:49.205Z,5.10
2019-05-07T05:46:19.423Z,5.10
2019-05-07T05:48:46.718Z,4.87
2019-05-07T05:51:13.801Z,5.00
2019-05-07T05:53:45.136Z,5.37
2019-05-07T05:56:12.032Z,4.63
2019-05-07T05:58:39.246Z,5.43
2019-05-07T06:01:13.079Z,4.97
2019-05-07T06:03:47.446Z,5.40
2019-05-07T06:06:17.179Z,5.90
2019-05-07T06:08:44.254Z,4.70
2019-05-07T06:11:13.092Z,4.90
2019-05-07T06:13:46.247Z,4.87
2019-05-07T06:16:16.904Z,4.70
2019-05-07T06:18:44.220Z,5.67
2019-05-07T06:21:12.585Z,5.37
2019-05-07T06:23:48.313Z,4.63
2019-05-07T06:26:44.819Z,5.60
2019-05-07T06:29:11.990Z,4.57
2019-05-07T06:31:54.635Z,5.10
2019-05-07T06:34:23.384Z,4.80
2019-05-07T06:36:52.823Z,5.10
2019-05-07T06:39:22.020Z,5.43
2019-05-07T06:41:48.644Z,5.37
2019-05-07T06:44:15.827Z,5.13
2019-05-07T06:46:43.220Z,5.23
2019-05-07T06:49:13.042Z,4.53
2019-05-07T06:51:41.970Z,5.53
2019-05-07T06:54:12.971Z,5.03
2019-05-07T06:56:42.108Z,4.83
2019-05-07T06:59:13.001Z,4.80
2019-05-07T07:01:42.335Z,4.20
2019-05-07T07:04:12.957Z,4.57
2019-05-07T07:06:40.025Z,4.33
2019-05-07T07:09:07.254Z,4.83
2019-05-07T07:11:39.079Z,4.40
2019-05-07T07:14:17.629Z,4.63
2019-05-07T07:16:54.040Z,5.27
2019-05-07T07:19:23.356Z,5.10
2019-05-07T07:21:52.845Z,3.83
2019-05-07T07:24:22.312Z,5.07
2019-05-07T07:26:52.826Z,4.80
2019-05-07T07:29:21.971Z,4.77
2019-05-07T07:31:52.795Z,4.83
2019-05-07T07:34:22.555Z,4.63
2019-05-07T07:37:03.092Z,6.00
2019-05-07T07:39:34.687Z,4.27
2019-05-07T07:41:58.116Z,4.30
2019-05-07T07:44:29.977Z,3.93
2019-05-07T07:46:59.051Z,3.90
2019-05-07T07:52:14.192Z,3.93
2019-05-07T07:54:59.264Z,3.63
2019-05-07T07:57:26.415Z,4.00
2019-05-07T08:00:03.036Z,5.00
2019-05-07T08:02:32.076Z,4.43
2019-05-07T08:04:58.986Z,4.53
2019-05-07T08:07:29.733Z,3.57
2019-05-07T08:09:58.589Z,3.90
2019-05-07T08:12:48.968Z,3.87
2019-05-07T08:15:16.899Z,4.53
2019-05-07T08:17:37.738Z,3.70
2019-05-07T08:20:05.118Z,4.07
2019-05-07T08:22:42.330Z,4.20
2019-05-07T08:25:09.713Z,4.17
2019-05-07T08:27:36.893Z,3.57
2019-05-07T08:30:03.983Z,4.10
2019-05-07T08:32:32.691Z,4.37
2019-05-07T08:35:02.231Z,3.67
2019-05-07T08:37:28.884Z,3.57
2019-05-07T08:39:56.086Z,3.83
2019-05-07T08:42:23.284Z,3.90
2019-05-07T08:44:53.482Z,3.80
2019-05-07T08:47:22.685Z,3.53
2019-05-07T08:49:49.490Z,4.00
2019-05-07T08:52:16.578Z,3.83
2019-05-07T08:54:58.559Z,3.73
2019-05-07T08:57:18.490Z,3.90
2019-05-07T08:59:57.476Z,3.70
2019-05-07T09:02:14.626Z,4.00
2019-05-07T09:04:41.914Z,3.50
2019-05-07T09:07:09.407Z,3.40
2019-05-07T09:09:42.584Z,3.70
2019-05-07T09:12:08.389Z,4.03
2019-05-07T09:14:38.314Z,3.60
2019-05-07T09:17:05.459Z,3.73
2019-05-07T09:19:46.935Z,4.03
2019-05-07T09:22:02.170Z,3.33
2019-05-07T09:24:29.737Z,4.00
2019-05-07T09:26:56.822Z,3.77
2019-05-07T09:29:23.942Z,3.63
2019-05-07T09:31:52.530Z,4.20
2019-05-07T09:34:22.147Z,3.30
2019-05-07T09:36:48.755Z,3.03
2019-05-07T09:39:16.108Z,3.63
2019-05-07T09:41:43.521Z,3.27
2019-05-07T09:44:11.970Z,3.03
2019-05-07T09:46:39.279Z,3.30
2019-05-07T09:49:06.434Z,3.60
2019-05-07T09:51:33.727Z,3.43
2019-05-07T09:54:02.501Z,3.63
2019-05-07T09:56:32.021Z,3.07
2019-05-07T09:58:58.827Z,3.70
2019-05-07T10:01:25.911Z,2.97
2019-05-07T10:03:55.226Z,4.00
2019-05-07T10:06:22.946Z,3.50
2019-05-07T10:09:02.891Z,3.13
2019-05-07T10:11:42.559Z,2.80
2019-05-07T10:14:12.332Z,2.77
2019-05-07T10:16:39.226Z,3.07
2019-05-07T10:19:11.234Z,3.33
2019-05-07T10:21:36.937Z,2.90
2019-05-07T10:24:04.363Z,3.40
2019-05-07T10:26:42.726Z,3.17
2019-05-07T10:29:09.600Z,2.87
2019-05-07T10:31:36.749Z,3.37
2019-05-07T10:34:04.005Z,3.20
2019-05-07T10:36:32.016Z,2.87
2019-05-07T10:39:12.965Z,2.37
2019-05-07T10:41:42.345Z,3.00
2019-05-07T10:44:09.275Z,3.33
2019-05-07T10:46:36.512Z,3.00
2019-05-07T10:49:03.983Z,2.70
2019-05-07T10:51:32.219Z,3.37
2019-05-07T10:53:59.679Z,2.87
2019-05-07T10:56:28.930Z,2.40
2019-05-07T10:59:02.772Z,2.80
2019-05-07T11:01:33.403Z,2.80
2019-05-07T11:04:02.222Z,3.60
2019-05-07T11:06:29.719Z,3.20
2019-05-07T11:08:57.036Z,3.10
2019-05-07T11:11:24.101Z,2.77
2019-05-07T11:13:55.777Z,2.53
2019-05-07T11:16:27.761Z,3.30
2019-05-07T11:18:54.923Z,3.60
2019-05-07T11:21:28.140Z,2.73
2019-05-07T11:24:06.108Z,3.70
2019-05-07T11:26:35.185Z,3.30
2019-05-07T11:29:08.742Z,2.90
2019-05-07T11:31:37.255Z,3.10
2019-05-07T11:34:04.426Z,2.70
2019-05-07T11:36:34.763Z,2.43
2019-05-07T11:39:05.289Z,2.70
2019-05-07T11:41:33.861Z,2.90
2019-05-07T11:44:02.815Z,2.93
2019-05-07T11:46:33.267Z,2.80
2019-05-07T11:49:00.427Z,2.37
2019-05-07T11:51:27.598Z,2.53
2019-05-07T11:54:02.031Z,3.10
2019-05-07T11:56:29.176Z,2.63
2019-05-07T11:59:02.631Z,2.93
2019-05-07T12:01:41.585Z,2.60
2019-05-07T12:06:53.259Z,2.57
2019-05-07T12:09:22.177Z,2.50
2019-05-07T12:14:41.462Z,2.80
2019-05-07T12:17:09.143Z,2.57
2019-05-07T12:19:36.598Z,2.43
2019-05-07T12:22:14.127Z,2.37
2019-05-07T12:24:41.905Z,2.73
2019-05-07T12:27:09.315Z,2.10
2019-05-07T12:29:36.768Z,2.27
2019-05-07T12:32:22.070Z,2.70
2019-05-07T12:34:42.367Z,2.37
2019-05-07T12:37:12.563Z,2.27
2019-05-07T12:39:42.186Z,2.87
2019-05-07T12:42:08.744Z,2.93
2019-05-07T12:44:46.344Z,2.87
2019-05-07T12:47:18.524Z,2.97
2019-05-07T12:49:45.561Z,2.97
2019-05-07T12:52:12.754Z,3.30
2019-05-07T12:54:42.807Z,2.53
2019-05-07T12:57:11.815Z,2.70
2019-05-07T12:59:38.817Z,2.43
2019-05-07T13:02:17.962Z,2.87
2019-05-07T13:04:41.631Z,2.63
2019-05-07T13:07:15.088Z,2.70
2019-05-07T13:09:42.739Z,2.80
2019-05-07T13:12:16.682Z,2.47
2019-05-07T13:14:40.590Z,2.50
2019-05-07T13:17:07.906Z,2.80
2019-05-07T13:19:37.455Z,2.30
2019-05-07T13:22:14.495Z,3.03
2019-05-07T13:24:42.512Z,2.87
2019-05-07T13:27:11.662Z,2.60
2019-05-07T13:29:38.796Z,2.50
2019-05-07T13:32:06.188Z,2.70
2019-05-07T13:34:34.142Z,3.13
2019-05-07T13:37:02.630Z,2.27
2019-05-07T13:39:30.000Z,3.00
2019-05-07T13:41:58.804Z,2.30
2019-05-07T13:44:31.951Z,2.50
2019-05-07T13:46:59.321Z,2.93
2019-05-07T13:49:26.404Z,2.80
2019-05-07T13:52:03.162Z,2.70
2019-05-07T13:57:19.655Z,2.47
2019-05-07T13:59:46.834Z,2.60
2019-05-07T14:02:19.835Z,2.50
2019-05-07T14:04:49.676Z,2.67
2019-05-07T14:07:16.898Z,2.80
2019-05-07T14:09:46.362Z,3.43
2019-05-07T14:12:15.471Z,2.80
2019-05-07T14:14:44.347Z,2.97
2019-05-07T14:17:14.413Z,3.03
2019-05-07T14:19:42.268Z,2.80
2019-05-07T14:22:18.671Z,2.97
2019-05-07T14:24:52.991Z,3.13
2019-05-07T14:27:20.440Z,2.97
2019-05-07T14:29:47.541Z,2.70
2019-05-07T14:32:17.045Z,3.33
2019-05-07T14:34:45.605Z,2.67
2019-05-07T14:37:14.401Z,2.90
2019-05-07T14:39:47.319Z,1.97
2019-05-07T14:42:18.127Z,2.80
2019-05-07T14:44:46.921Z,2.83
2019-05-07T14:47:14.436Z,2.47
2019-05-07T14:49:44.170Z,2.33
2019-05-07T14:52:12.435Z,2.53
2019-05-07T14:54:42.773Z,2.17
2019-05-07T14:57:08.373Z,3.23
2019-05-07T14:59:35.630Z,3.30
2019-05-07T15:02:02.904Z,2.30
2019-05-07T15:04:31.975Z,2.50
2019-05-07T15:06:59.142Z,2.63
2019-05-07T15:09:26.293Z,2.63
2019-05-07T15:11:53.526Z,3.10
2019-05-07T15:14:20.685Z,2.57
2019-05-07T15:16:49.070Z,2.50
2019-05-07T15:19:16.369Z,2.63
2019-05-07T15:21:45.017Z,2.17
2019-05-07T15:24:12.673Z,2.40
2019-05-07T15:26:44.118Z,2.23
2019-05-07T15:29:13.911Z,3.00
2019-05-07T15:31:43.952Z,2.60
2019-05-07T15:34:12.924Z,2.80
2019-05-07T15:36:42.208Z,2.50
2019-05-07T15:39:10.694Z,2.50
2019-05-07T15:41:37.953Z,2.67
2019-05-07T15:44:05.026Z,3.20
2019-05-07T15:46:34.171Z,2.50
2019-05-07T15:49:01.850Z,2.40
2019-05-07T15:51:29.147Z,2.80
2019-05-07T15:53:56.337Z,2.27
2019-05-07T15:56:23.415Z,2.80
2019-05-07T16:01:30.602Z,2.40
2019-05-07T16:03:57.814Z,2.63
2019-05-07T16:06:24.902Z,2.50
2019-05-07T16:08:52.385Z,2.30
2019-05-07T16:11:25.992Z,2.60
2019-05-07T16:13:52.461Z,2.60
2019-05-07T16:16:23.564Z,2.67
2019-05-07T16:18:53.540Z,2.23
2019-05-07T16:21:22.587Z,2.53
2019-05-07T16:23:49.510Z,3.03
2019-05-07T16:26:16.657Z,2.63
2019-05-07T16:28:43.739Z,2.97
2019-05-07T16:31:11.001Z,3.40
2019-05-07T16:33:38.084Z,2.83
2019-05-07T16:36:05.178Z,2.97
2019-05-07T16:38:32.694Z,2.77
2019-05-07T16:41:00.202Z,3.10
2019-05-07T16:43:27.314Z,3.23
2019-05-07T16:45:54.454Z,2.87
2019-05-07T16:48:23.276Z,2.93
2019-05-07T16:50:52.280Z,3.03
2019-05-07T16:53:27.459Z,2.67
2019-05-07T16:55:48.035Z,2.90
2019-05-07T16:58:15.163Z,2.57
2019-05-07T17:00:42.396Z,2.90
2019-05-07T17:03:11.617Z,2.80
2019-05-07T17:05:38.476Z,3.30
2019-05-07T17:08:05.703Z,3.13
2019-05-07T17:10:32.880Z,2.60
2019-05-07T17:13:00.074Z,2.47
2019-05-07T17:15:27.127Z,2.90
2019-05-07T17:17:54.259Z,3.53
2019-05-07T17:20:21.968Z,2.80
2019-05-07T17:22:49.260Z,2.77
2019-05-07T17:25:16.385Z,2.70
2019-05-07T17:27:43.819Z,3.10
2019-05-07T17:30:11.766Z,2.50
2019-05-07T17:32:39.114Z,2.87
2019-05-07T17:35:06.233Z,2.57
2019-05-07T17:37:33.375Z,2.87
2019-05-07T17:40:03.146Z,3.07
2019-05-07T17:42:32.719Z,3.27
2019-05-07T17:44:59.238Z,2.80
2019-05-07T17:47:26.391Z,2.87
2019-05-07T17:49:53.453Z,2.60
2019-05-07T17:52:22.607Z,2.80
2019-05-07T17:54:49.491Z,3.63
2019-05-07T17:57:16.579Z,4.40
2019-05-07T17:59:43.716Z,6.43
2019-05-07T18:02:11.155Z,5.47
2019-05-07T18:04:48.457Z,4.90
2019-05-07T18:07:07.130Z,4.10
2019-05-07T18:09:34.299Z,4.67
2019-05-07T18:12:04.730Z,4.97
2019-05-07T18:14:32.257Z,4.27
2019-05-07T18:17:02.093Z,3.90
2019-05-07T18:19:29.658Z,4.30
2019-05-07T18:21:56.743Z,3.77
2019-05-07T18:24:23.851Z,3.40
2019-05-07T18:26:54.024Z,3.50
2019-05-07T18:29:27.006Z,3.63
2019-05-07T18:31:54.110Z,4.20
2019-05-07T18:34:21.222Z,3.47
2019-05-07T18:39:43.770Z,3.87
2019-05-07T18:42:12.711Z,3.67
2019-05-07T18:44:41.600Z,4.00
2019-05-07T18:47:09.080Z,3.60
2019-05-07T18:49:36.301Z,4.87
2019-05-07T18:52:03.405Z,3.50
2019-05-07T18:54:31.440Z,3.50
2019-05-07T18:56:58.966Z,3.70
2019-05-07T18:59:26.120Z,3.80
2019-05-07T19:01:53.228Z,3.40
2019-05-07T19:04:21.908Z,3.93
2019-05-07T19:06:51.710Z,3.57
2019-05-07T19:09:17.996Z,3.30
2019-05-07T19:11:45.153Z,3.80
2019-05-07T19:14:13.379Z,3.20
2019-05-07T19:16:43.018Z,3.67
2019-05-07T19:19:09.750Z,3.40
2019-05-07T19:21:37.077Z,3.50
2019-05-07T19:24:04.199Z,3.47
2019-05-07T19:26:31.341Z,3.87
2019-05-07T19:28:58.573Z,4.07
2019-05-07T19:31:25.725Z,3.33
2019-05-07T19:33:52.827Z,2.87
2019-05-07T19:36:22.223Z,3.40
2019-05-07T19:38:49.018Z,3.40
2019-05-07T19:41:16.137Z,3.67
2019-05-07T19:43:45.087Z,3.60
2019-05-07T19:46:13.898Z,3.60
2019-05-07T19:48:46.747Z,2.80
2019-05-07T19:51:13.909Z,3.60
2019-05-07T19:53:41.930Z,2.87
2019-05-07T19:56:09.417Z,3.53
2019-05-07T19:58:36.536Z,3.23
2019-05-07T20:01:03.651Z,2.97
2019-05-07T20:03:31.125Z,3.03
2019-05-07T20:05:58.369Z,3.53
2019-05-07T20:08:27.386Z,3.20
2019-05-07T20:10:57.005Z,3.80
2019-05-07T20:13:23.364Z,3.00
2019-05-07T20:15:52.075Z,3.33
2019-05-07T20:18:19.360Z,3.30
2019-05-07T20:20:46.439Z,3.67
2019-05-07T20:23:13.507Z,3.00
2019-05-07T20:25:42.025Z,3.47
2019-05-07T20:28:09.324Z,3.90
2019-05-07T20:30:36.409Z,2.80
2019-05-07T20:33:03.509Z,3.57
2019-05-07T20:35:32.543Z,3.40
2019-05-07T20:37:59.557Z,3.10
2019-05-07T20:40:27.127Z,4.00
2019-05-07T20:42:54.236Z,3.00
2019-05-07T20:45:21.328Z,3.60
2019-05-07T20:47:48.412Z,2.90
2019-05-07T20:50:15.579Z,3.63
2019-05-07T20:52:42.756Z,3.57
2019-05-07T20:55:09.807Z,2.90
2019-05-07T20:57:36.904Z,3.27
2019-05-07T21:00:03.992Z,3.77
2019-05-07T21:02:44.509Z,3.03
2019-05-07T21:05:00.198Z,3.50
2019-05-07T21:07:27.338Z,3.00
2019-05-07T21:09:54.400Z,2.97
2019-05-07T21:12:22.481Z,3.10
2019-05-07T21:14:49.847Z,3.30
2019-05-07T21:17:17.010Z,3.00
2019-05-07T21:19:44.166Z,3.50
2019-05-07T21:22:13.048Z,3.10
2019-05-07T21:24:42.094Z,3.10
2019-05-07T21:27:08.902Z,3.50
2019-05-07T21:29:35.947Z,3.17
2019-05-07T21:32:03.448Z,2.90
2019-05-07T21:34:31.773Z,3.30
2019-05-07T21:36:59.020Z,2.80
2019-05-07T21:39:26.072Z,3.00
2019-05-07T21:41:55.277Z,3.17
2019-05-07T21:44:25.167Z,3.10
2019-05-07T21:46:51.858Z,3.37
2019-05-07T21:49:19.192Z,3.60
2019-05-07T21:51:46.330Z,3.60
2019-05-07T21:54:13.422Z,3.27
2019-05-07T21:56:40.488Z,3.23
2019-05-07T21:59:07.628Z,3.53
2019-05-07T22:01:34.837Z,3.47
2019-05-07T22:04:02.069Z,2.70
2019-05-07T22:06:29.237Z,3.00
2019-05-07T22:08:56.395Z,2.97
2019-05-07T22:11:23.451Z,3.57
2019-05-07T22:13:54.807Z,3.20
2019-05-07T22:16:22.371Z,3.20
2019-05-07T22:18:49.507Z,3.27
2019-05-07T22:21:16.600Z,3.30
2019-05-07T22:23:43.668Z,3.80
2019-05-07T22:26:22.384Z,3.60
2019-05-07T22:28:42.031Z,3.67
2019-05-07T22:31:12.585Z,3.93
2019-05-07T22:33:38.971Z,4.00
2019-05-07T22:36:06.077Z,3.53
2019-05-07T22:38:33.291Z,3.57
2019-05-07T22:41:02.143Z,3.10
2019-05-07T22:43:31.701Z,3.93
2019-05-07T22:45:58.138Z,3.57
2019-05-07T22:48:25.209Z,3.10
2019-05-07T22:50:52.322Z,3.80
2019-05-07T22:53:19.414Z,3.93
2019-05-07T22:55:46.475Z,3.60
2019-05-07T22:58:14.407Z,3.20
2019-05-07T23:00:42.721Z,4.10
2019-05-07T23:03:12.180Z,3.30
2019-05-07T23:05:38.844Z,3.60
2019-05-07T23:08:05.906Z,3.23
2019-05-07T23:10:33.400Z,3.63
2019-05-07T23:13:02.294Z,4.27
2019-05-07T23:15:29.653Z,3.80
2019-05-07T23:17:58.408Z,3.53
2019-05-07T23:20:25.497Z,3.47
2019-05-07T23:22:52.569Z,3.63
2019-05-07T23:25:19.671Z,3.70
2019-05-07T23:27:46.734Z,3.37
2019-05-07T23:30:13.793Z,3.20
2019-05-07T23:32:40.981Z,3.70
2019-05-07T23:35:08.061Z,3.33
2019-05-07T23:37:35.122Z,4.00
2019-05-07T23:40:03.917Z,3.57
2019-05-07T23:42:31.000Z,3.70
2019-05-07T23:44:58.059Z,3.70
2019-05-07T23:47:25.158Z,4.00
2019-05-07T23:49:52.462Z,3.70
2019-05-07T23:52:19.908Z,4.13
2019-05-07T23:54:46.963Z,3.93
2019-05-07T23:57:15.357Z,4.30
2019-05-07T23:59:42.808Z,4.13
